Terminal Aerodrome Forecast
Issued by NWS Bismarck, ND

Home | Current Version | Previous Version | Text Only | Print | Product List | Glossary Off
Versions: 1 2 3 4 5 6 7 8 9 10 11 12 13 14

000
FTUS43 KBIS 271023 AAA
TAFBIS
TAF AMD
KBIS 271023Z 2710/2806 12004KT P6SM SCT100
     FM271200 23006KT P6SM VCSH BKN100
     FM271700 26012KT P6SM VCTS SCT060 SCT100CB
     FM272200 33015KT P6SM SCT060
     FM280100 33005KT P6SM FEW050=

USA.gov is the U.S. government's official web portal to all federal, state and local government web resources and services.